createdAt,value
2023-12-09T00:01:34.310Z,3.50
2023-12-09T00:04:20.750Z,3.50
2023-12-09T00:07:07.432Z,3.50
2023-12-09T00:09:53.907Z,3.40
2023-12-09T00:12:40.106Z,3.40
2023-12-09T00:15:26.600Z,3.40
2023-12-09T00:18:13.322Z,3.40
2023-12-09T00:21:00.897Z,3.40
2023-12-09T00:23:48.586Z,3.40
2023-12-09T00:26:36.759Z,3.40
2023-12-09T00:29:23.746Z,3.30
2023-12-09T00:32:10.793Z,3.40
2023-12-09T00:34:57.443Z,3.40
2023-12-09T00:37:44.140Z,3.40
2023-12-09T00:40:30.825Z,3.40
2023-12-09T00:43:18.028Z,3.40
2023-12-09T00:46:05.846Z,3.30
2023-12-09T00:48:52.643Z,3.40
2023-12-09T00:51:40.900Z,3.40
2023-12-09T00:54:27.122Z,3.40
2023-12-09T00:57:13.843Z,3.50
2023-12-09T01:00:00.623Z,3.40
2023-12-09T01:02:47.005Z,3.50
2023-12-09T01:05:33.559Z,3.40
2023-12-09T01:08:20.084Z,3.50
2023-12-09T01:11:06.987Z,3.50
2023-12-09T01:13:53.135Z,3.50
2023-12-09T01:16:39.297Z,3.50
2023-12-09T01:19:25.934Z,3.50
2023-12-09T01:22:12.309Z,3.50
2023-12-09T01:24:59.032Z,3.50
2023-12-09T01:27:47.094Z,3.50
2023-12-09T01:30:33.424Z,3.50
2023-12-09T01:33:20.035Z,3.40
2023-12-09T01:36:06.686Z,3.40
2023-12-09T01:38:53.285Z,3.40
2023-12-09T01:41:39.901Z,3.40
2023-12-09T01:44:26.685Z,3.40
2023-12-09T01:47:13.713Z,3.40
2023-12-09T01:50:01.341Z,3.30
2023-12-09T01:52:48.679Z,3.30
2023-12-09T01:55:35.249Z,3.30
2023-12-09T01:58:21.845Z,3.30
2023-12-09T02:01:09.230Z,3.30
2023-12-09T02:03:56.591Z,3.30
2023-12-09T02:06:44.806Z,3.30
2023-12-09T02:09:33.350Z,3.40
2023-12-09T02:12:30.062Z,3.40
2023-12-09T02:15:46.992Z,3.30
2023-12-09T02:18:36.473Z,3.40
2023-12-09T02:21:23.882Z,3.40
2023-12-09T02:24:10.237Z,3.40
2023-12-09T02:27:08.611Z,3.40
2023-12-09T02:30:05.170Z,3.40
2023-12-09T02:32:53.116Z,3.50
2023-12-09T02:35:42.190Z,3.50
2023-12-09T02:38:29.779Z,3.40
2023-12-09T02:41:17.744Z,3.40
2023-12-09T02:44:06.099Z,3.40
2023-12-09T02:46:59.073Z,3.40
2023-12-09T02:49:46.151Z,3.40
2023-12-09T02:52:32.569Z,3.40
2023-12-09T02:55:19.225Z,3.40
2023-12-09T02:58:07.041Z,3.40
2023-12-09T03:00:53.560Z,3.50
2023-12-09T03:03:40.974Z,3.40
2023-12-09T03:06:27.366Z,3.40
2023-12-09T03:09:13.643Z,3.50
2023-12-09T03:12:00.886Z,3.50
2023-12-09T03:14:47.674Z,3.50
2023-12-09T03:17:35.310Z,3.50
2023-12-09T03:20:22.200Z,3.50
2023-12-09T03:23:08.871Z,3.50
2023-12-09T03:25:55.243Z,3.50
2023-12-09T03:28:42.780Z,3.50
2023-12-09T03:31:29.580Z,3.50
2023-12-09T03:34:16.491Z,3.50
2023-12-09T03:37:02.938Z,3.50
2023-12-09T03:39:49.124Z,3.50
2023-12-09T03:42:35.310Z,3.50
2023-12-09T03:45:21.688Z,3.50
2023-12-09T03:48:08.234Z,3.50
2023-12-09T03:50:54.830Z,3.50
2023-12-09T03:53:42.850Z,3.50
2023-12-09T03:56:29.187Z,3.60
2023-12-09T03:59:15.137Z,3.50
2023-12-09T04:02:01.263Z,3.50
2023-12-09T04:04:47.687Z,3.40
2023-12-09T04:07:33.995Z,3.50
2023-12-09T04:10:20.157Z,3.50
2023-12-09T04:13:06.470Z,3.50
2023-12-09T04:15:52.437Z,3.50
2023-12-09T04:18:38.647Z,3.60
2023-12-09T04:21:24.667Z,3.60
2023-12-09T04:24:10.628Z,3.60
2023-12-09T04:26:56.816Z,3.60
2023-12-09T04:29:42.936Z,3.60
2023-12-09T04:32:33.016Z,3.60
2023-12-09T04:35:19.384Z,3.60
2023-12-09T04:38:06.088Z,3.60
2023-12-09T04:40:52.284Z,3.70
2023-12-09T04:43:39.966Z,3.70
2023-12-09T04:46:26.307Z,3.80
2023-12-09T04:49:12.420Z,3.80
2023-12-09T04:51:59.146Z,3.90
2023-12-09T04:54:45.708Z,3.90
2023-12-09T04:57:32.760Z,3.90
2023-12-09T05:00:19.477Z,3.90
2023-12-09T05:03:05.649Z,3.80
2023-12-09T05:05:51.667Z,3.80
2023-12-09T05:08:40.183Z,3.80
2023-12-09T05:11:26.464Z,3.80
2023-12-09T05:14:12.907Z,3.80
2023-12-09T05:16:59.965Z,3.80
2023-12-09T05:19:46.261Z,3.80
2023-12-09T05:22:32.756Z,3.80
2023-12-09T05:25:19.077Z,3.80
2023-12-09T05:28:05.738Z,3.80
2023-12-09T05:30:52.515Z,3.90
2023-12-09T05:33:38.933Z,4.00
2023-12-09T05:36:25.340Z,4.00
2023-12-09T05:39:11.559Z,4.10
2023-12-09T05:41:57.772Z,3.90
2023-12-09T05:44:46.615Z,3.90
2023-12-09T05:47:32.784Z,3.80
2023-12-09T05:50:19.006Z,3.80
2023-12-09T05:53:05.139Z,3.80
2023-12-09T05:55:51.238Z,3.70
2023-12-09T05:58:38.759Z,3.80
2023-12-09T06:01:25.140Z,3.70
2023-12-09T06:04:11.286Z,3.70
2023-12-09T06:06:57.708Z,3.70
2023-12-09T06:09:44.537Z,3.70
2023-12-09T06:12:30.911Z,3.70
2023-12-09T06:15:18.021Z,3.80
2023-12-09T06:18:04.160Z,3.80
2023-12-09T06:20:50.295Z,3.80
2023-12-09T06:23:38.162Z,3.90
2023-12-09T06:26:24.295Z,4.00
2023-12-09T06:29:12.774Z,4.00
2023-12-09T06:31:58.907Z,4.10
2023-12-09T06:34:45.034Z,4.00
2023-12-09T06:37:31.382Z,4.10
2023-12-09T06:40:17.501Z,4.10
2023-12-09T06:43:03.722Z,4.20
2023-12-09T06:45:49.896Z,4.20
2023-12-09T06:48:39.432Z,4.20
2023-12-09T06:51:26.329Z,4.10
2023-12-09T06:54:12.980Z,3.90
2023-12-09T06:56:59.674Z,3.80
2023-12-09T06:59:45.858Z,3.80
2023-12-09T07:02:41.332Z,3.80
2023-12-09T07:05:35.542Z,3.90
2023-12-09T07:08:21.508Z,3.90
2023-12-09T07:11:07.850Z,4.00
2023-12-09T07:13:55.089Z,4.00
2023-12-09T07:16:41.506Z,4.10
2023-12-09T07:19:28.130Z,4.20
2023-12-09T07:22:14.402Z,4.10
2023-12-09T07:25:00.503Z,4.20
2023-12-09T07:27:46.482Z,4.30
2023-12-09T07:30:32.648Z,4.40
2023-12-09T07:33:18.969Z,4.60
2023-12-09T07:36:06.065Z,4.70
2023-12-09T07:38:52.272Z,4.70
2023-12-09T07:41:38.975Z,4.80
2023-12-09T07:44:25.430Z,4.80
2023-12-09T07:47:11.937Z,4.80
2023-12-09T07:49:58.021Z,4.80
2023-12-09T07:52:44.087Z,4.80
2023-12-09T07:55:30.392Z,4.80
2023-12-09T07:58:16.854Z,4.80
2023-12-09T08:01:05.129Z,4.80
2023-12-09T08:03:53.792Z,4.80
2023-12-09T08:06:40.382Z,4.90
2023-12-09T08:09:26.382Z,4.90
2023-12-09T08:12:13.448Z,5.00
2023-12-09T08:14:59.665Z,5.20
2023-12-09T08:17:45.914Z,5.40
2023-12-09T08:20:32.064Z,5.40
2023-12-09T08:23:17.951Z,5.50
2023-12-09T08:26:05.126Z,5.50
2023-12-09T08:28:51.465Z,5.60
2023-12-09T08:31:37.731Z,5.90
2023-12-09T08:34:23.773Z,6.20
2023-12-09T08:37:09.904Z,6.50
2023-12-09T08:39:57.428Z,6.80
2023-12-09T08:42:45.495Z,7.00
2023-12-09T08:45:33.072Z,7.00
2023-12-09T08:48:19.854Z,7.00
2023-12-09T08:51:06.452Z,7.00
2023-12-09T08:53:52.750Z,6.80
2023-12-09T08:56:38.841Z,6.80
2023-12-09T08:59:24.891Z,6.70
2023-12-09T09:02:11.315Z,6.70
2023-12-09T09:04:57.454Z,6.70
2023-12-09T09:07:46.994Z,6.70
2023-12-09T09:10:32.951Z,6.60
2023-12-09T09:13:19.124Z,6.60
2023-12-09T09:16:05.601Z,6.70
2023-12-09T09:18:52.084Z,6.70
2023-12-09T09:21:38.341Z,6.70
2023-12-09T09:24:24.423Z,6.70
2023-12-09T09:27:10.582Z,6.70
2023-12-09T09:29:56.924Z,6.70
2023-12-09T09:32:43.168Z,6.70
2023-12-09T09:35:29.445Z,6.70
2023-12-09T09:38:15.487Z,6.80
2023-12-09T09:41:07.975Z,7.00
2023-12-09T09:44:03.768Z,7.10
2023-12-09T09:46:56.841Z,7.40
2023-12-09T09:49:46.549Z,7.80
2023-12-09T09:52:36.864Z,8.10
2023-12-09T09:55:26.694Z,8.50
2023-12-09T09:58:14.358Z,8.80
2023-12-09T10:01:02.602Z,9.00
2023-12-09T10:03:53.178Z,9.40
2023-12-09T10:06:40.928Z,9.80
2023-12-09T10:09:27.509Z,10.10
2023-12-09T10:12:14.507Z,10.40
2023-12-09T10:15:04.754Z,11.10
2023-12-09T10:17:52.124Z,11.40
2023-12-09T10:20:38.514Z,11.30
2023-12-09T10:23:24.625Z,11.10
2023-12-09T10:26:11.118Z,10.80
2023-12-09T10:28:57.249Z,10.70
2023-12-09T10:31:43.461Z,10.80
2023-12-09T10:34:30.147Z,10.80
2023-12-09T10:37:20.365Z,10.80
2023-12-09T10:40:08.074Z,11.30
2023-12-09T10:42:54.376Z,12.30
2023-12-09T10:45:40.312Z,13.20
2023-12-09T10:48:27.215Z,13.80
2023-12-09T10:51:13.497Z,14.30
2023-12-09T10:53:59.698Z,14.80
2023-12-09T10:56:46.038Z,15.40
2023-12-09T10:59:33.671Z,15.90
2023-12-09T11:02:22.126Z,16.00
2023-12-09T11:05:11.039Z,16.30
2023-12-09T11:07:58.715Z,16.40
2023-12-09T11:10:46.554Z,16.50
2023-12-09T11:13:45.718Z,16.50
2023-12-09T11:16:32.348Z,16.70
2023-12-09T11:19:19.173Z,16.50
2023-12-09T11:22:05.731Z,16.30
2023-12-09T11:24:53.312Z,16.50
2023-12-09T11:27:39.847Z,16.90
2023-12-09T11:30:35.251Z,17.20
2023-12-09T11:33:22.031Z,17.50
2023-12-09T11:36:08.976Z,17.70
2023-12-09T11:38:56.055Z,18.20
2023-12-09T11:41:42.723Z,18.40
2023-12-09T11:44:29.977Z,18.80
2023-12-09T11:47:17.739Z,19.00
2023-12-09T11:50:05.290Z,19.00
2023-12-09T11:52:52.270Z,18.60
2023-12-09T11:55:40.613Z,17.90
2023-12-09T11:58:27.403Z,17.60
2023-12-09T12:01:13.465Z,18.20
2023-12-09T12:04:00.465Z,18.80
2023-12-09T12:06:46.942Z,19.20
2023-12-09T12:09:33.134Z,19.40
2023-12-09T12:12:20.974Z,19.80
2023-12-09T12:15:08.163Z,19.90
2023-12-09T12:17:54.473Z,19.80
2023-12-09T12:20:41.135Z,19.20
2023-12-09T12:23:32.745Z,18.60
2023-12-09T12:26:19.364Z,18.00
2023-12-09T12:29:05.695Z,17.70
2023-12-09T12:31:51.882Z,17.50
2023-12-09T12:34:44.930Z,17.20
2023-12-09T12:37:31.760Z,16.90
2023-12-09T12:40:19.464Z,16.70
2023-12-09T12:43:05.742Z,16.50
2023-12-09T12:45:53.110Z,16.20
2023-12-09T12:48:39.581Z,15.90
2023-12-09T12:51:27.123Z,15.90
2023-12-09T12:54:13.312Z,16.20
2023-12-09T12:56:59.455Z,17.00
2023-12-09T12:59:45.881Z,18.00
2023-12-09T13:02:34.085Z,18.70
2023-12-09T13:05:20.351Z,19.30
2023-12-09T13:08:06.517Z,19.40
2023-12-09T13:10:52.825Z,19.30
2023-12-09T13:13:38.772Z,18.70
2023-12-09T13:16:24.907Z,17.50
2023-12-09T13:19:11.369Z,16.40
2023-12-09T13:21:57.704Z,15.60
2023-12-09T13:24:43.991Z,15.40
2023-12-09T13:27:30.385Z,15.70
2023-12-09T13:30:16.693Z,16.20
2023-12-09T13:33:04.028Z,16.60
2023-12-09T13:35:50.634Z,16.20
2023-12-09T13:38:36.936Z,15.80
2023-12-09T13:41:23.497Z,16.00
2023-12-09T13:44:12.874Z,15.60
2023-12-09T13:46:59.539Z,14.90
2023-12-09T13:49:46.188Z,14.30
2023-12-09T13:52:33.207Z,13.60
2023-12-09T13:55:22.035Z,13.00
2023-12-09T13:58:08.089Z,12.50
2023-12-09T14:00:54.244Z,12.30
2023-12-09T14:03:40.968Z,12.20
2023-12-09T14:06:26.976Z,12.10
2023-12-09T14:09:15.899Z,12.00
2023-12-09T14:12:02.478Z,12.00
2023-12-09T14:14:48.710Z,12.30
2023-12-09T14:17:35.034Z,13.40
2023-12-09T14:20:21.489Z,14.60
2023-12-09T14:23:07.826Z,15.50
2023-12-09T14:25:54.094Z,15.90
2023-12-09T14:28:40.332Z,15.60
2023-12-09T14:31:26.553Z,15.60
2023-12-09T14:34:13.135Z,15.00
2023-12-09T14:36:59.402Z,14.00
2023-12-09T14:39:45.935Z,13.00
2023-12-09T14:42:32.718Z,12.00
2023-12-09T14:45:18.849Z,11.30
2023-12-09T14:48:19.084Z,10.70
2023-12-09T14:51:08.683Z,10.30
2023-12-09T14:53:59.452Z,10.00
2023-12-09T14:56:47.331Z,9.60
2023-12-09T14:59:34.523Z,9.50
2023-12-09T15:02:21.532Z,9.20
2023-12-09T15:05:09.206Z,9.10
2023-12-09T15:07:56.358Z,8.80
2023-12-09T15:10:42.860Z,8.70
2023-12-09T15:13:30.043Z,8.70
2023-12-09T15:16:18.309Z,8.50
2023-12-09T15:19:05.589Z,8.30
2023-12-09T15:21:52.522Z,8.30
2023-12-09T15:24:39.942Z,8.10
2023-12-09T15:27:26.773Z,8.00
2023-12-09T15:30:16.813Z,7.90
2023-12-09T15:33:03.675Z,7.80
2023-12-09T15:35:50.083Z,7.70
2023-12-09T15:38:36.859Z,7.60
2023-12-09T15:41:24.328Z,7.50
2023-12-09T15:44:14.020Z,7.40
2023-12-09T15:47:02.534Z,7.20
2023-12-09T15:49:51.759Z,7.20
2023-12-09T15:52:42.403Z,7.10
2023-12-09T15:55:31.947Z,7.10
2023-12-09T15:58:19.216Z,7.00
2023-12-09T16:01:13.114Z,7.00
2023-12-09T16:04:08.228Z,6.90
2023-12-09T16:06:55.322Z,6.90
2023-12-09T16:09:47.951Z,6.70
2023-12-09T16:12:40.907Z,6.50
2023-12-09T16:15:27.853Z,6.40
2023-12-09T16:18:15.101Z,6.40
2023-12-09T16:21:04.132Z,6.50
2023-12-09T16:23:51.590Z,6.50
2023-12-09T16:26:38.217Z,6.50
2023-12-09T16:29:24.607Z,6.40
2023-12-09T16:32:12.135Z,6.40
2023-12-09T16:34:58.974Z,6.40
2023-12-09T16:37:46.074Z,6.30
2023-12-09T16:40:34.481Z,6.40
2023-12-09T16:43:21.081Z,6.40
2023-12-09T16:46:07.711Z,6.30
2023-12-09T16:48:54.480Z,6.30
2023-12-09T16:51:41.340Z,6.20
2023-12-09T16:54:27.440Z,6.30
2023-12-09T16:57:16.346Z,6.30
2023-12-09T17:00:02.896Z,6.30
2023-12-09T17:02:49.222Z,6.30
2023-12-09T17:05:35.980Z,6.20
2023-12-09T17:08:22.544Z,6.10
2023-12-09T17:11:09.114Z,6.10
2023-12-09T17:13:55.442Z,6.00
2023-12-09T17:16:42.959Z,6.00
2023-12-09T17:19:30.158Z,5.90
2023-12-09T17:22:16.812Z,5.80
2023-12-09T17:25:04.225Z,5.80
2023-12-09T17:27:51.905Z,5.70
2023-12-09T17:30:40.248Z,5.70
2023-12-09T17:33:26.634Z,5.70
2023-12-09T17:36:13.616Z,5.70
2023-12-09T17:39:00.040Z,5.60
2023-12-09T17:41:46.391Z,5.60
2023-12-09T17:44:34.687Z,5.60
2023-12-09T17:47:20.923Z,5.60
2023-12-09T17:50:07.534Z,5.60
2023-12-09T17:52:54.016Z,5.50
2023-12-09T17:55:40.364Z,5.50
2023-12-09T17:58:27.503Z,5.50
2023-12-09T18:01:14.492Z,5.50
2023-12-09T18:04:01.108Z,5.50
2023-12-09T18:06:47.956Z,5.40
2023-12-09T18:09:34.187Z,5.50
2023-12-09T18:12:20.471Z,5.50
2023-12-09T18:15:07.768Z,5.60
2023-12-09T18:17:54.946Z,5.70
2023-12-09T18:20:41.567Z,5.70
2023-12-09T18:23:27.517Z,5.80
2023-12-09T18:26:13.819Z,5.50
2023-12-09T18:29:00.827Z,5.30
2023-12-09T18:31:48.554Z,5.20
2023-12-09T18:34:35.077Z,5.20
2023-12-09T18:37:23.040Z,5.30
2023-12-09T18:40:13.599Z,5.40
2023-12-09T18:43:00.756Z,5.40
2023-12-09T18:45:47.426Z,5.30
2023-12-09T18:48:34.075Z,5.30
2023-12-09T18:51:20.376Z,5.30
2023-12-09T18:54:07.098Z,5.30
2023-12-09T18:56:54.021Z,5.30
2023-12-09T18:59:41.060Z,5.30
2023-12-09T19:02:28.680Z,5.40
2023-12-09T19:05:15.758Z,5.40
2023-12-09T19:08:02.813Z,5.30
2023-12-09T19:10:49.503Z,5.30
2023-12-09T19:13:36.447Z,5.30
2023-12-09T19:16:22.991Z,5.30
2023-12-09T19:19:09.921Z,5.30
2023-12-09T19:21:57.100Z,5.40
2023-12-09T19:24:44.329Z,5.50
2023-12-09T19:27:30.820Z,5.50
2023-12-09T19:30:18.604Z,5.50
2023-12-09T19:33:05.754Z,5.50
2023-12-09T19:35:52.408Z,5.50
2023-12-09T19:38:39.010Z,5.40
2023-12-09T19:41:25.591Z,5.40
2023-12-09T19:44:12.118Z,5.30
2023-12-09T19:46:59.944Z,5.20
2023-12-09T19:49:46.722Z,5.20
2023-12-09T19:52:35.343Z,5.10
2023-12-09T19:55:21.912Z,5.20
2023-12-09T19:58:08.814Z,5.20
2023-12-09T20:00:55.389Z,5.20
2023-12-09T20:03:41.845Z,5.10
2023-12-09T20:06:29.545Z,5.10
2023-12-09T20:09:16.145Z,5.10
2023-12-09T20:12:02.585Z,5.10
2023-12-09T20:14:49.328Z,5.10
2023-12-09T20:17:36.830Z,5.20
2023-12-09T20:20:27.275Z,5.20
2023-12-09T20:23:13.902Z,5.20
2023-12-09T20:26:00.729Z,5.10
2023-12-09T20:28:47.223Z,5.10
2023-12-09T20:31:33.798Z,5.20
2023-12-09T20:34:20.563Z,5.20
2023-12-09T20:37:07.147Z,5.10
2023-12-09T20:39:58.055Z,5.10
2023-12-09T20:42:44.650Z,5.10
2023-12-09T20:45:32.229Z,5.20
2023-12-09T20:48:20.527Z,5.20
2023-12-09T20:51:08.796Z,5.20
2023-12-09T20:53:55.418Z,5.20
2023-12-09T20:56:42.189Z,5.10
2023-12-09T20:59:28.968Z,5.00
2023-12-09T21:02:15.594Z,5.00
2023-12-09T21:05:04.540Z,5.00
2023-12-09T21:07:55.295Z,5.00
2023-12-09T21:10:41.736Z,5.00
2023-12-09T21:13:28.231Z,5.00
2023-12-09T21:16:14.921Z,5.10
2023-12-09T21:19:02.092Z,5.10
2023-12-09T21:21:48.592Z,5.10
2023-12-09T21:24:35.172Z,5.00
2023-12-09T21:27:21.395Z,5.00
2023-12-09T21:30:08.403Z,5.00
2023-12-09T21:32:55.357Z,5.10
2023-12-09T21:35:41.728Z,5.00
2023-12-09T21:38:27.993Z,5.00
2023-12-09T21:41:21.741Z,5.00
2023-12-09T21:44:09.126Z,5.00
2023-12-09T21:46:55.745Z,5.00
2023-12-09T21:49:42.317Z,4.90
2023-12-09T21:52:28.823Z,4.90
2023-12-09T21:55:15.316Z,4.80
2023-12-09T21:58:01.678Z,4.80
2023-12-09T22:00:48.833Z,4.80
2023-12-09T22:03:35.410Z,4.80
2023-12-09T22:06:21.948Z,4.80
2023-12-09T22:09:08.246Z,4.90
2023-12-09T22:11:55.040Z,5.00
2023-12-09T22:14:41.671Z,5.00
2023-12-09T22:17:28.654Z,5.00
2023-12-09T22:20:15.237Z,5.00
2023-12-09T22:23:01.434Z,5.00
2023-12-09T22:25:47.637Z,5.10
2023-12-09T22:28:34.095Z,5.20
2023-12-09T22:31:20.264Z,5.30
2023-12-09T22:34:07.388Z,5.40
2023-12-09T22:36:53.504Z,5.50
2023-12-09T22:39:40.215Z,5.50
2023-12-09T22:42:27.777Z,5.50
2023-12-09T22:45:15.460Z,5.60
2023-12-09T22:48:02.749Z,5.70
2023-12-09T22:50:49.181Z,5.70
2023-12-09T22:53:35.753Z,5.70
2023-12-09T22:56:29.758Z,5.70
2023-12-09T22:59:15.996Z,5.80
2023-12-09T23:02:06.295Z,5.80
2023-12-09T23:04:52.460Z,5.80
2023-12-09T23:07:38.912Z,5.80
2023-12-09T23:10:25.581Z,5.90
2023-12-09T23:13:12.137Z,6.00
2023-12-09T23:15:58.962Z,6.00
2023-12-09T23:18:45.136Z,6.00
2023-12-09T23:21:31.749Z,6.00
2023-12-09T23:24:17.910Z,5.90
2023-12-09T23:27:04.218Z,5.90
2023-12-09T23:29:50.766Z,5.90
2023-12-09T23:32:37.247Z,5.90
2023-12-09T23:35:23.494Z,5.80
2023-12-09T23:38:10.118Z,5.70
2023-12-09T23:40:56.241Z,5.70
2023-12-09T23:43:43.365Z,5.60
2023-12-09T23:46:29.945Z,5.60
2023-12-09T23:49:16.300Z,5.60
2023-12-09T23:52:02.768Z,5.50
2023-12-09T23:54:49.117Z,5.50
2023-12-09T23:57:35.077Z,5.50
